sensor_id;sensor_type;location;lat;lon;timestamp;P1;durP1;ratioP1;P2;durP2;ratioP2
73454;SDS011;61690;51.824;6.306;2023-11-19T00:01:26;4.68;;;1.50;;
73454;SDS011;61690;51.824;6.306;2023-11-19T00:03:51;3.70;;;1.47;;
73454;SDS011;61690;51.824;6.306;2023-11-19T00:06:16;3.90;;;1.30;;
73454;SDS011;61690;51.824;6.306;2023-11-19T00:08:42;4.00;;;1.30;;
73454;SDS011;61690;51.824;6.306;2023-11-19T00:11:08;4.15;;;1.40;;
73454;SDS011;61690;51.824;6.306;2023-11-19T00:13:34;3.73;;;1.23;;
73454;SDS011;61690;51.824;6.306;2023-11-19T00:15:59;3.80;;;1.40;;
73454;SDS011;61690;51.824;6.306;2023-11-19T00:18:24;3.88;;;1.50;;
73454;SDS011;61690;51.824;6.306;2023-11-19T00:20:50;3.60;;;1.10;;
73454;SDS011;61690;51.824;6.306;2023-11-19T00:23:15;3.70;;;1.30;;
73454;SDS011;61690;51.824;6.306;2023-11-19T00:25:40;4.10;;;1.50;;
73454;SDS011;61690;51.824;6.306;2023-11-19T00:28:05;3.77;;;1.40;;
73454;SDS011;61690;51.824;6.306;2023-11-19T00:30:31;5.47;;;1.30;;
73454;SDS011;61690;51.824;6.306;2023-11-19T00:32:56;3.80;;;1.17;;
73454;SDS011;61690;51.824;6.306;2023-11-19T00:35:21;3.77;;;1.20;;
73454;SDS011;61690;51.824;6.306;2023-11-19T00:37:47;3.30;;;1.23;;
73454;SDS011;61690;51.824;6.306;2023-11-19T00:40:12;3.87;;;1.20;;
73454;SDS011;61690;51.824;6.306;2023-11-19T00:42:38;5.32;;;1.25;;
73454;SDS011;61690;51.824;6.306;2023-11-19T00:45:04;3.70;;;1.20;;
73454;SDS011;61690;51.824;6.306;2023-11-19T00:47:33;4.03;;;1.40;;
73454;SDS011;61690;51.824;6.306;2023-11-19T00:50:00;3.80;;;1.50;;
73454;SDS011;61690;51.824;6.306;2023-11-19T00:52:25;4.37;;;1.40;;
73454;SDS011;61690;51.824;6.306;2023-11-19T00:54:50;3.23;;;1.13;;
73454;SDS011;61690;51.824;6.306;2023-11-19T00:57:16;3.77;;;1.20;;
73454;SDS011;61690;51.824;6.306;2023-11-19T00:59:42;3.60;;;1.20;;
73454;SDS011;61690;51.824;6.306;2023-11-19T01:02:08;4.28;;;1.50;;
73454;SDS011;61690;51.824;6.306;2023-11-19T01:04:34;3.60;;;1.20;;
73454;SDS011;61690;51.824;6.306;2023-11-19T01:07:01;3.97;;;1.38;;
73454;SDS011;61690;51.824;6.306;2023-11-19T01:09:28;3.95;;;1.23;;
73454;SDS011;61690;51.824;6.306;2023-11-19T01:11:54;3.40;;;1.30;;
73454;SDS011;61690;51.824;6.306;2023-11-19T01:14:19;3.80;;;1.40;;
73454;SDS011;61690;51.824;6.306;2023-11-19T01:16:45;3.85;;;1.33;;
73454;SDS011;61690;51.824;6.306;2023-11-19T01:19:11;4.10;;;1.17;;
73454;SDS011;61690;51.824;6.306;2023-11-19T01:21:36;3.53;;;1.30;;
73454;SDS011;61690;51.824;6.306;2023-11-19T01:24:01;4.00;;;1.30;;
73454;SDS011;61690;51.824;6.306;2023-11-19T01:26:28;4.00;;;1.08;;
73454;SDS011;61690;51.824;6.306;2023-11-19T01:28:53;3.63;;;1.40;;
73454;SDS011;61690;51.824;6.306;2023-11-19T01:31:18;3.83;;;1.90;;
73454;SDS011;61690;51.824;6.306;2023-11-19T01:33:44;3.90;;;1.35;;
73454;SDS011;61690;51.824;6.306;2023-11-19T01:36:12;3.93;;;1.30;;
73454;SDS011;61690;51.824;6.306;2023-11-19T01:38:38;4.38;;;1.30;;
73454;SDS011;61690;51.824;6.306;2023-11-19T01:41:03;3.40;;;1.00;;
73454;SDS011;61690;51.824;6.306;2023-11-19T01:43:33;4.10;;;1.30;;
73454;SDS011;61690;51.824;6.306;2023-11-19T01:46:02;3.78;;;1.23;;
73454;SDS011;61690;51.824;6.306;2023-11-19T01:48:29;3.63;;;1.40;;
73454;SDS011;61690;51.824;6.306;2023-11-19T01:50:55;3.90;;;1.10;;
73454;SDS011;61690;51.824;6.306;2023-11-19T01:53:21;3.60;;;1.13;;
73454;SDS011;61690;51.824;6.306;2023-11-19T01:55:47;3.30;;;1.10;;
73454;SDS011;61690;51.824;6.306;2023-11-19T01:58:13;3.83;;;1.10;;
73454;SDS011;61690;51.824;6.306;2023-11-19T02:00:39;3.50;;;0.90;;
73454;SDS011;61690;51.824;6.306;2023-11-19T02:03:05;3.45;;;1.02;;
73454;SDS011;61690;51.824;6.306;2023-11-19T02:05:34;3.65;;;1.20;;
73454;SDS011;61690;51.824;6.306;2023-11-19T02:08:00;3.70;;;1.17;;
73454;SDS011;61690;51.824;6.306;2023-11-19T02:10:26;3.88;;;1.10;;
73454;SDS011;61690;51.824;6.306;2023-11-19T02:12:52;3.20;;;1.00;;
73454;SDS011;61690;51.824;6.306;2023-11-19T02:15:17;3.70;;;1.50;;
73454;SDS011;61690;51.824;6.306;2023-11-19T02:17:46;3.70;;;1.20;;
73454;SDS011;61690;51.824;6.306;2023-11-19T02:20:12;3.50;;;1.00;;
73454;SDS011;61690;51.824;6.306;2023-11-19T02:22:39;3.70;;;0.97;;
73454;SDS011;61690;51.824;6.306;2023-11-19T02:25:07;3.75;;;1.40;;
73454;SDS011;61690;51.824;6.306;2023-11-19T02:30:20;3.60;;;1.10;;
73454;SDS011;61690;51.824;6.306;2023-11-19T02:32:46;3.50;;;1.20;;
73454;SDS011;61690;51.824;6.306;2023-11-19T02:35:11;3.77;;;1.00;;
73454;SDS011;61690;51.824;6.306;2023-11-19T02:37:37;3.50;;;1.03;;
73454;SDS011;61690;51.824;6.306;2023-11-19T02:40:04;4.22;;;1.25;;
73454;SDS011;61690;51.824;6.306;2023-11-19T02:42:30;3.67;;;1.17;;
73454;SDS011;61690;51.824;6.306;2023-11-19T02:44:56;3.50;;;1.00;;
73454;SDS011;61690;51.824;6.306;2023-11-19T02:47:21;4.33;;;1.27;;
73454;SDS011;61690;51.824;6.306;2023-11-19T02:49:48;3.40;;;1.10;;
73454;SDS011;61690;51.824;6.306;2023-11-19T02:52:14;3.33;;;0.90;;
73454;SDS011;61690;51.824;6.306;2023-11-19T02:54:40;2.97;;;0.87;;
73454;SDS011;61690;51.824;6.306;2023-11-19T02:57:06;3.40;;;1.08;;
73454;SDS011;61690;51.824;6.306;2023-11-19T02:59:33;3.30;;;1.00;;
73454;SDS011;61690;51.824;6.306;2023-11-19T03:02:04;4.30;;;1.40;;
73454;SDS011;61690;51.824;6.306;2023-11-19T03:04:32;4.68;;;1.20;;
73454;SDS011;61690;51.824;6.306;2023-11-19T03:07:00;3.70;;;1.00;;
73454;SDS011;61690;51.824;6.306;2023-11-19T03:09:25;3.53;;;1.20;;
73454;SDS011;61690;51.824;6.306;2023-11-19T03:11:50;4.00;;;1.40;;
73454;SDS011;61690;51.824;6.306;2023-11-19T03:14:16;3.70;;;1.10;;
73454;SDS011;61690;51.824;6.306;2023-11-19T03:16:44;3.30;;;0.90;;
73454;SDS011;61690;51.824;6.306;2023-11-19T03:19:11;3.30;;;1.00;;
73454;SDS011;61690;51.824;6.306;2023-11-19T03:21:36;2.93;;;0.80;;
73454;SDS011;61690;51.824;6.306;2023-11-19T03:24:02;3.30;;;1.10;;
73454;SDS011;61690;51.824;6.306;2023-11-19T03:26:27;3.40;;;1.30;;
73454;SDS011;61690;51.824;6.306;2023-11-19T03:28:53;3.40;;;1.00;;
73454;SDS011;61690;51.824;6.306;2023-11-19T03:31:19;3.95;;;1.13;;
73454;SDS011;61690;51.824;6.306;2023-11-19T03:33:45;3.43;;;1.20;;
73454;SDS011;61690;51.824;6.306;2023-11-19T03:36:10;3.25;;;0.90;;
73454;SDS011;61690;51.824;6.306;2023-11-19T03:38:36;3.73;;;1.00;;
73454;SDS011;61690;51.824;6.306;2023-11-19T03:41:02;3.80;;;1.17;;
73454;SDS011;61690;51.824;6.306;2023-11-19T03:43:35;3.78;;;1.00;;
73454;SDS011;61690;51.824;6.306;2023-11-19T03:46:00;3.90;;;1.03;;
73454;SDS011;61690;51.824;6.306;2023-11-19T03:48:25;3.40;;;0.90;;
73454;SDS011;61690;51.824;6.306;2023-11-19T03:50:51;3.77;;;0.83;;
73454;SDS011;61690;51.824;6.306;2023-11-19T03:53:16;3.30;;;1.00;;
73454;SDS011;61690;51.824;6.306;2023-11-19T03:55:41;3.93;;;0.80;;
73454;SDS011;61690;51.824;6.306;2023-11-19T03:58:06;3.47;;;0.90;;
73454;SDS011;61690;51.824;6.306;2023-11-19T04:00:32;3.40;;;0.97;;
73454;SDS011;61690;51.824;6.306;2023-11-19T04:02:58;3.20;;;0.77;;
73454;SDS011;61690;51.824;6.306;2023-11-19T04:05:23;3.70;;;1.20;;
73454;SDS011;61690;51.824;6.306;2023-11-19T04:07:48;3.50;;;1.00;;
73454;SDS011;61690;51.824;6.306;2023-11-19T04:10:14;3.10;;;0.80;;
73454;SDS011;61690;51.824;6.306;2023-11-19T04:12:41;3.22;;;0.85;;
73454;SDS011;61690;51.824;6.306;2023-11-19T04:15:07;3.47;;;1.00;;
73454;SDS011;61690;51.824;6.306;2023-11-19T04:17:33;3.87;;;0.90;;
73454;SDS011;61690;51.824;6.306;2023-11-19T04:19:59;3.50;;;1.07;;
73454;SDS011;61690;51.824;6.306;2023-11-19T04:22:24;4.10;;;1.10;;
73454;SDS011;61690;51.824;6.306;2023-11-19T04:24:49;3.43;;;0.90;;
73454;SDS011;61690;51.824;6.306;2023-11-19T04:27:14;3.40;;;0.90;;
73454;SDS011;61690;51.824;6.306;2023-11-19T04:29:40;3.93;;;1.17;;
73454;SDS011;61690;51.824;6.306;2023-11-19T04:32:05;2.97;;;0.90;;
73454;SDS011;61690;51.824;6.306;2023-11-19T04:34:31;3.70;;;1.20;;
73454;SDS011;61690;51.824;6.306;2023-11-19T04:36:56;3.10;;;0.90;;
73454;SDS011;61690;51.824;6.306;2023-11-19T04:39:21;3.10;;;0.70;;
73454;SDS011;61690;51.824;6.306;2023-11-19T04:41:50;3.37;;;1.17;;
73454;SDS011;61690;51.824;6.306;2023-11-19T04:44:19;4.00;;;0.93;;
73454;SDS011;61690;51.824;6.306;2023-11-19T04:46:45;3.55;;;0.90;;
73454;SDS011;61690;51.824;6.306;2023-11-19T04:49:11;3.55;;;1.05;;
73454;SDS011;61690;51.824;6.306;2023-11-19T04:54:06;3.50;;;1.05;;
73454;SDS011;61690;51.824;6.306;2023-11-19T04:56:33;3.50;;;1.10;;
73454;SDS011;61690;51.824;6.306;2023-11-19T04:58:59;3.43;;;0.90;;
73454;SDS011;61690;51.824;6.306;2023-11-19T05:01:24;3.20;;;0.90;;
73454;SDS011;61690;51.824;6.306;2023-11-19T05:03:49;3.60;;;1.20;;
73454;SDS011;61690;51.824;6.306;2023-11-19T05:06:16;3.57;;;1.03;;
73454;SDS011;61690;51.824;6.306;2023-11-19T05:08:41;3.53;;;1.00;;
73454;SDS011;61690;51.824;6.306;2023-11-19T05:11:06;3.60;;;0.90;;
73454;SDS011;61690;51.824;6.306;2023-11-19T05:13:31;3.17;;;0.90;;
73454;SDS011;61690;51.824;6.306;2023-11-19T05:15:57;3.10;;;0.80;;
73454;SDS011;61690;51.824;6.306;2023-11-19T05:18:22;4.10;;;0.93;;
73454;SDS011;61690;51.824;6.306;2023-11-19T05:20:48;3.60;;;0.90;;
73454;SDS011;61690;51.824;6.306;2023-11-19T05:23:13;3.30;;;1.00;;
73454;SDS011;61690;51.824;6.306;2023-11-19T05:25:39;3.73;;;1.17;;
73454;SDS011;61690;51.824;6.306;2023-11-19T05:28:04;3.72;;;0.93;;
73454;SDS011;61690;51.824;6.306;2023-11-19T05:30:30;3.80;;;0.80;;
73454;SDS011;61690;51.824;6.306;2023-11-19T05:32:55;3.47;;;0.70;;
73454;SDS011;61690;51.824;6.306;2023-11-19T05:35:20;3.33;;;1.00;;
73454;SDS011;61690;51.824;6.306;2023-11-19T05:37:46;3.40;;;0.80;;
73454;SDS011;61690;51.824;6.306;2023-11-19T05:40:11;3.17;;;0.90;;
73454;SDS011;61690;51.824;6.306;2023-11-19T05:42:40;3.20;;;0.73;;
73454;SDS011;61690;51.824;6.306;2023-11-19T05:45:06;2.55;;;0.50;;
73454;SDS011;61690;51.824;6.306;2023-11-19T05:47:32;3.53;;;1.00;;
73454;SDS011;61690;51.824;6.306;2023-11-19T05:49:58;3.20;;;0.70;;
73454;SDS011;61690;51.824;6.306;2023-11-19T05:52:23;3.30;;;0.80;;
73454;SDS011;61690;51.824;6.306;2023-11-19T05:54:48;4.03;;;1.00;;
73454;SDS011;61690;51.824;6.306;2023-11-19T05:57:16;3.60;;;1.10;;
73454;SDS011;61690;51.824;6.306;2023-11-19T05:59:47;3.15;;;0.80;;
73454;SDS011;61690;51.824;6.306;2023-11-19T06:02:13;4.00;;;1.20;;
73454;SDS011;61690;51.824;6.306;2023-11-19T06:04:38;3.30;;;0.80;;
73454;SDS011;61690;51.824;6.306;2023-11-19T06:07:03;3.50;;;0.80;;
73454;SDS011;61690;51.824;6.306;2023-11-19T06:09:30;3.40;;;0.90;;
73454;SDS011;61690;51.824;6.306;2023-11-19T06:11:55;3.40;;;0.90;;
73454;SDS011;61690;51.824;6.306;2023-11-19T06:14:22;3.30;;;1.00;;
73454;SDS011;61690;51.824;6.306;2023-11-19T06:16:49;3.20;;;0.90;;
73454;SDS011;61690;51.824;6.306;2023-11-19T06:19:16;3.88;;;1.10;;
73454;SDS011;61690;51.824;6.306;2023-11-19T06:21:42;4.27;;;0.80;;
73454;SDS011;61690;51.824;6.306;2023-11-19T06:24:07;3.03;;;0.70;;
73454;SDS011;61690;51.824;6.306;2023-11-19T06:26:33;3.22;;;0.80;;
73454;SDS011;61690;51.824;6.306;2023-11-19T06:28:59;3.93;;;0.93;;
73454;SDS011;61690;51.824;6.306;2023-11-19T06:31:24;3.13;;;0.83;;
73454;SDS011;61690;51.824;6.306;2023-11-19T06:33:50;3.13;;;0.70;;
73454;SDS011;61690;51.824;6.306;2023-11-19T06:36:15;3.10;;;1.00;;
73454;SDS011;61690;51.824;6.306;2023-11-19T06:38:41;3.17;;;0.80;;
73454;SDS011;61690;51.824;6.306;2023-11-19T06:41:08;3.60;;;0.97;;
73454;SDS011;61690;51.824;6.306;2023-11-19T06:43:34;3.70;;;0.90;;
73454;SDS011;61690;51.824;6.306;2023-11-19T06:45:59;3.43;;;0.67;;
73454;SDS011;61690;51.824;6.306;2023-11-19T06:48:25;3.30;;;0.70;;
73454;SDS011;61690;51.824;6.306;2023-11-19T06:50:50;3.20;;;1.00;;
73454;SDS011;61690;51.824;6.306;2023-11-19T06:53:15;3.77;;;1.10;;
73454;SDS011;61690;51.824;6.306;2023-11-19T06:55:40;3.70;;;1.13;;
73454;SDS011;61690;51.824;6.306;2023-11-19T06:58:06;3.73;;;1.10;;
73454;SDS011;61690;51.824;6.306;2023-11-19T07:00:32;3.20;;;0.90;;
73454;SDS011;61690;51.824;6.306;2023-11-19T07:02:58;3.60;;;1.07;;
73454;SDS011;61690;51.824;6.306;2023-11-19T07:05:24;3.83;;;0.80;;
73454;SDS011;61690;51.824;6.306;2023-11-19T07:07:49;3.43;;;0.90;;
73454;SDS011;61690;51.824;6.306;2023-11-19T07:10:15;3.53;;;0.73;;
73454;SDS011;61690;51.824;6.306;2023-11-19T07:12:40;3.60;;;0.90;;
73454;SDS011;61690;51.824;6.306;2023-11-19T07:15:07;3.63;;;0.90;;
73454;SDS011;61690;51.824;6.306;2023-11-19T07:17:33;3.72;;;1.00;;
73454;SDS011;61690;51.824;6.306;2023-11-19T07:20:00;3.55;;;0.80;;
73454;SDS011;61690;51.824;6.306;2023-11-19T07:22:25;3.50;;;0.83;;
73454;SDS011;61690;51.824;6.306;2023-11-19T07:24:51;3.58;;;1.08;;
73454;SDS011;61690;51.824;6.306;2023-11-19T07:27:18;3.17;;;0.70;;
73454;SDS011;61690;51.824;6.306;2023-11-19T07:29:43;3.50;;;0.90;;
73454;SDS011;61690;51.824;6.306;2023-11-19T07:32:09;3.63;;;0.90;;
73454;SDS011;61690;51.824;6.306;2023-11-19T07:34:35;3.00;;;0.80;;
73454;SDS011;61690;51.824;6.306;2023-11-19T07:37:00;3.53;;;1.03;;
73454;SDS011;61690;51.824;6.306;2023-11-19T07:39:27;3.58;;;0.80;;
73454;SDS011;61690;51.824;6.306;2023-11-19T07:42:00;3.67;;;1.10;;
73454;SDS011;61690;51.824;6.306;2023-11-19T07:44:25;4.10;;;1.10;;
73454;SDS011;61690;51.824;6.306;2023-11-19T07:46:50;3.70;;;0.80;;
73454;SDS011;61690;51.824;6.306;2023-11-19T07:49:16;3.73;;;0.87;;
73454;SDS011;61690;51.824;6.306;2023-11-19T07:51:41;3.60;;;0.80;;
73454;SDS011;61690;51.824;6.306;2023-11-19T07:54:06;3.70;;;0.93;;
73454;SDS011;61690;51.824;6.306;2023-11-19T07:56:32;3.60;;;0.90;;
73454;SDS011;61690;51.824;6.306;2023-11-19T07:59:00;4.28;;;1.00;;
73454;SDS011;61690;51.824;6.306;2023-11-19T08:01:25;4.57;;;0.90;;
73454;SDS011;61690;51.824;6.306;2023-11-19T08:03:51;4.03;;;0.87;;
73454;SDS011;61690;51.824;6.306;2023-11-19T08:06:16;3.40;;;0.73;;
73454;SDS011;61690;51.824;6.306;2023-11-19T08:08:41;4.70;;;0.80;;
73454;SDS011;61690;51.824;6.306;2023-11-19T08:11:06;4.23;;;1.10;;
73454;SDS011;61690;51.824;6.306;2023-11-19T08:13:32;4.10;;;0.98;;
73454;SDS011;61690;51.824;6.306;2023-11-19T08:15:57;3.30;;;0.80;;
73454;SDS011;61690;51.824;6.306;2023-11-19T08:18:23;3.90;;;1.03;;
73454;SDS011;61690;51.824;6.306;2023-11-19T08:20:49;4.18;;;1.00;;
73454;SDS011;61690;51.824;6.306;2023-11-19T08:23:17;3.67;;;0.95;;
73454;SDS011;61690;51.824;6.306;2023-11-19T08:25:43;3.70;;;1.17;;
73454;SDS011;61690;51.824;6.306;2023-11-19T08:28:09;3.47;;;1.23;;
73454;SDS011;61690;51.824;6.306;2023-11-19T08:30:34;4.03;;;0.90;;
73454;SDS011;61690;51.824;6.306;2023-11-19T08:33:00;3.70;;;0.80;;
73454;SDS011;61690;51.824;6.306;2023-11-19T08:35:27;4.10;;;0.90;;
73454;SDS011;61690;51.824;6.306;2023-11-19T08:37:53;4.15;;;0.82;;
73454;SDS011;61690;51.824;6.306;2023-11-19T08:40:19;4.30;;;1.00;;
73454;SDS011;61690;51.824;6.306;2023-11-19T08:42:44;3.40;;;0.57;;
73454;SDS011;61690;51.824;6.306;2023-11-19T08:45:10;3.70;;;1.20;;
73454;SDS011;61690;51.824;6.306;2023-11-19T08:47:36;3.87;;;1.00;;
73454;SDS011;61690;51.824;6.306;2023-11-19T08:50:02;3.88;;;0.98;;
73454;SDS011;61690;51.824;6.306;2023-11-19T08:52:29;3.67;;;1.00;;
73454;SDS011;61690;51.824;6.306;2023-11-19T08:54:54;4.33;;;1.10;;
73454;SDS011;61690;51.824;6.306;2023-11-19T08:57:19;4.67;;;0.90;;
73454;SDS011;61690;51.824;6.306;2023-11-19T08:59:45;4.40;;;0.95;;
73454;SDS011;61690;51.824;6.306;2023-11-19T09:02:11;3.57;;;0.90;;
73454;SDS011;61690;51.824;6.306;2023-11-19T09:04:36;3.80;;;0.90;;
73454;SDS011;61690;51.824;6.306;2023-11-19T09:07:02;3.45;;;0.70;;
73454;SDS011;61690;51.824;6.306;2023-11-19T09:09:28;3.72;;;0.70;;
73454;SDS011;61690;51.824;6.306;2023-11-19T09:11:53;4.13;;;1.00;;
73454;SDS011;61690;51.824;6.306;2023-11-19T09:14:19;3.40;;;0.90;;
73454;SDS011;61690;51.824;6.306;2023-11-19T09:16:49;5.07;;;1.10;;
73454;SDS011;61690;51.824;6.306;2023-11-19T09:19:14;4.70;;;0.90;;
73454;SDS011;61690;51.824;6.306;2023-11-19T09:21:39;4.63;;;1.00;;
73454;SDS011;61690;51.824;6.306;2023-11-19T09:24:05;4.10;;;1.10;;
73454;SDS011;61690;51.824;6.306;2023-11-19T09:26:32;4.63;;;0.90;;
73454;SDS011;61690;51.824;6.306;2023-11-19T09:28:57;4.10;;;1.07;;
73454;SDS011;61690;51.824;6.306;2023-11-19T09:31:23;3.27;;;0.90;;
73454;SDS011;61690;51.824;6.306;2023-11-19T09:33:48;4.83;;;0.90;;
73454;SDS011;61690;51.824;6.306;2023-11-19T09:36:13;5.10;;;1.10;;
73454;SDS011;61690;51.824;6.306;2023-11-19T09:38:39;3.37;;;0.97;;
73454;SDS011;61690;51.824;6.306;2023-11-19T09:41:09;4.93;;;1.00;;
73454;SDS011;61690;51.824;6.306;2023-11-19T09:43:36;4.35;;;1.13;;
73454;SDS011;61690;51.824;6.306;2023-11-19T09:46:04;4.00;;;0.93;;
73454;SDS011;61690;51.824;6.306;2023-11-19T09:48:34;3.72;;;0.80;;
73454;SDS011;61690;51.824;6.306;2023-11-19T09:51:02;5.43;;;0.90;;
73454;SDS011;61690;51.824;6.306;2023-11-19T09:53:27;3.83;;;0.90;;
73454;SDS011;61690;51.824;6.306;2023-11-19T09:55:53;3.88;;;0.93;;
73454;SDS011;61690;51.824;6.306;2023-11-19T09:58:18;4.17;;;0.80;;
73454;SDS011;61690;51.824;6.306;2023-11-19T10:00:44;3.53;;;1.10;;
73454;SDS011;61690;51.824;6.306;2023-11-19T10:03:10;4.30;;;0.93;;
73454;SDS011;61690;51.824;6.306;2023-11-19T10:05:37;4.18;;;1.05;;
73454;SDS011;61690;51.824;6.306;2023-11-19T10:08:03;4.18;;;1.00;;
73454;SDS011;61690;51.824;6.306;2023-11-19T10:10:29;4.22;;;1.10;;
73454;SDS011;61690;51.824;6.306;2023-11-19T10:12:55;4.20;;;0.93;;
73454;SDS011;61690;51.824;6.306;2023-11-19T10:15:21;4.67;;;1.00;;
73454;SDS011;61690;51.824;6.306;2023-11-19T10:17:47;3.92;;;0.90;;
73454;SDS011;61690;51.824;6.306;2023-11-19T10:20:13;3.87;;;0.77;;
73454;SDS011;61690;51.824;6.306;2023-11-19T10:22:38;4.00;;;1.00;;
73454;SDS011;61690;51.824;6.306;2023-11-19T10:25:04;4.80;;;1.20;;
73454;SDS011;61690;51.824;6.306;2023-11-19T10:27:48;4.70;;;1.10;;
73454;SDS011;61690;51.824;6.306;2023-11-19T10:30:17;5.30;;;1.17;;
73454;SDS011;61690;51.824;6.306;2023-11-19T10:32:45;5.32;;;1.10;;
73454;SDS011;61690;51.824;6.306;2023-11-19T10:35:10;4.50;;;1.00;;
73454;SDS011;61690;51.824;6.306;2023-11-19T10:37:37;5.18;;;1.05;;
73454;SDS011;61690;51.824;6.306;2023-11-19T10:40:02;4.83;;;0.90;;
73454;SDS011;61690;51.824;6.306;2023-11-19T10:42:30;4.75;;;1.00;;
73454;SDS011;61690;51.824;6.306;2023-11-19T10:44:55;4.47;;;1.00;;
73454;SDS011;61690;51.824;6.306;2023-11-19T10:47:21;5.13;;;0.90;;
73454;SDS011;61690;51.824;6.306;2023-11-19T10:49:48;4.55;;;1.05;;
73454;SDS011;61690;51.824;6.306;2023-11-19T10:52:15;5.07;;;1.10;;
73454;SDS011;61690;51.824;6.306;2023-11-19T10:54:44;4.25;;;1.10;;
73454;SDS011;61690;51.824;6.306;2023-11-19T10:57:19;3.67;;;0.80;;
73454;SDS011;61690;51.824;6.306;2023-11-19T10:59:47;5.50;;;0.90;;
73454;SDS011;61690;51.824;6.306;2023-11-19T11:02:14;4.55;;;0.82;;
73454;SDS011;61690;51.824;6.306;2023-11-19T11:04:44;4.75;;;0.98;;
73454;SDS011;61690;51.824;6.306;2023-11-19T11:07:12;5.15;;;1.00;;
73454;SDS011;61690;51.824;6.306;2023-11-19T11:09:40;4.88;;;1.13;;
73454;SDS011;61690;51.824;6.306;2023-11-19T11:12:06;6.00;;;1.17;;
73454;SDS011;61690;51.824;6.306;2023-11-19T11:14:34;5.05;;;0.90;;
73454;SDS011;61690;51.824;6.306;2023-11-19T11:17:03;5.60;;;1.10;;
73454;SDS011;61690;51.824;6.306;2023-11-19T11:19:32;5.32;;;0.95;;
73454;SDS011;61690;51.824;6.306;2023-11-19T11:21:58;4.10;;;1.03;;
73454;SDS011;61690;51.824;6.306;2023-11-19T11:27:01;5.10;;;1.17;;
73454;SDS011;61690;51.824;6.306;2023-11-19T11:29:41;4.85;;;0.70;;
73454;SDS011;61690;51.824;6.306;2023-11-19T11:32:23;4.00;;;0.80;;
73454;SDS011;61690;51.824;6.306;2023-11-19T11:35:08;4.93;;;1.10;;
73454;SDS011;61690;51.824;6.306;2023-11-19T11:37:50;5.50;;;1.10;;
73454;SDS011;61690;51.824;6.306;2023-11-19T11:40:24;5.75;;;1.00;;
73454;SDS011;61690;51.824;6.306;2023-11-19T11:42:51;4.43;;;0.80;;
73454;SDS011;61690;51.824;6.306;2023-11-19T11:45:17;5.07;;;0.90;;
73454;SDS011;61690;51.824;6.306;2023-11-19T11:50:11;4.03;;;0.93;;
73454;SDS011;61690;51.824;6.306;2023-11-19T11:57:51;5.32;;;0.90;;
73454;SDS011;61690;51.824;6.306;2023-11-19T12:02:52;5.38;;;1.15;;
73454;SDS011;61690;51.824;6.306;2023-11-19T12:05:20;5.30;;;1.13;;
73454;SDS011;61690;51.824;6.306;2023-11-19T12:07:57;4.68;;;0.70;;
73454;SDS011;61690;51.824;6.306;2023-11-19T12:10:28;5.45;;;1.00;;
73454;SDS011;61690;51.824;6.306;2023-11-19T12:12:59;4.33;;;1.00;;
73454;SDS011;61690;51.824;6.306;2023-11-19T12:15:25;4.53;;;0.90;;
73454;SDS011;61690;51.824;6.306;2023-11-19T12:17:52;4.75;;;1.25;;
73454;SDS011;61690;51.824;6.306;2023-11-19T12:20:21;4.55;;;1.15;;
73454;SDS011;61690;51.824;6.306;2023-11-19T12:22:51;6.20;;;1.10;;
73454;SDS011;61690;51.824;6.306;2023-11-19T12:25:17;4.53;;;1.10;;
73454;SDS011;61690;51.824;6.306;2023-11-19T12:27:48;4.53;;;0.93;;
73454;SDS011;61690;51.824;6.306;2023-11-19T12:30:20;5.65;;;1.10;;
73454;SDS011;61690;51.824;6.306;2023-11-19T12:32:47;5.30;;;1.20;;
73454;SDS011;61690;51.824;6.306;2023-11-19T12:35:13;5.07;;;0.90;;
73454;SDS011;61690;51.824;6.306;2023-11-19T12:37:39;4.97;;;1.30;;
73454;SDS011;61690;51.824;6.306;2023-11-19T12:42:47;4.85;;;1.10;;
73454;SDS011;61690;51.824;6.306;2023-11-19T12:45:19;4.97;;;1.03;;
73454;SDS011;61690;51.824;6.306;2023-11-19T12:47:46;6.07;;;1.17;;
73454;SDS011;61690;51.824;6.306;2023-11-19T12:50:13;5.78;;;1.00;;
73454;SDS011;61690;51.824;6.306;2023-11-19T12:52:39;4.65;;;1.02;;
73454;SDS011;61690;51.824;6.306;2023-11-19T12:55:05;5.23;;;1.20;;
73454;SDS011;61690;51.824;6.306;2023-11-19T12:57:48;5.25;;;1.15;;
73454;SDS011;61690;51.824;6.306;2023-11-19T13:00:24;4.97;;;1.03;;
73454;SDS011;61690;51.824;6.306;2023-11-19T13:02:51;4.95;;;1.10;;
73454;SDS011;61690;51.824;6.306;2023-11-19T13:05:28;4.57;;;0.93;;
73454;SDS011;61690;51.824;6.306;2023-11-19T13:08:06;4.63;;;0.90;;
73454;SDS011;61690;51.824;6.306;2023-11-19T13:10:50;4.97;;;1.00;;
73454;SDS011;61690;51.824;6.306;2023-11-19T13:13:17;5.50;;;1.08;;
73454;SDS011;61690;51.824;6.306;2023-11-19T13:15:42;6.27;;;0.93;;
73454;SDS011;61690;51.824;6.306;2023-11-19T13:18:10;6.07;;;0.93;;
73454;SDS011;61690;51.824;6.306;2023-11-19T13:20:35;5.35;;;1.30;;
73454;SDS011;61690;51.824;6.306;2023-11-19T13:23:01;6.07;;;1.10;;
73454;SDS011;61690;51.824;6.306;2023-11-19T13:25:29;4.57;;;0.90;;
73454;SDS011;61690;51.824;6.306;2023-11-19T13:27:55;7.95;;;1.00;;
73454;SDS011;61690;51.824;6.306;2023-11-19T13:30:22;5.53;;;1.30;;
73454;SDS011;61690;51.824;6.306;2023-11-19T13:32:48;4.93;;;1.08;;
73454;SDS011;61690;51.824;6.306;2023-11-19T13:35:15;5.43;;;1.27;;
73454;SDS011;61690;51.824;6.306;2023-11-19T13:37:42;5.40;;;1.25;;
73454;SDS011;61690;51.824;6.306;2023-11-19T13:40:13;4.43;;;0.90;;
73454;SDS011;61690;51.824;6.306;2023-11-19T13:42:40;5.75;;;1.00;;
73454;SDS011;61690;51.824;6.306;2023-11-19T13:45:10;5.35;;;1.20;;
73454;SDS011;61690;51.824;6.306;2023-11-19T13:47:39;5.80;;;1.27;;
73454;SDS011;61690;51.824;6.306;2023-11-19T13:50:12;5.25;;;1.30;;
73454;SDS011;61690;51.824;6.306;2023-11-19T13:52:39;6.00;;;1.10;;
73454;SDS011;61690;51.824;6.306;2023-11-19T13:55:06;5.40;;;1.27;;
73454;SDS011;61690;51.824;6.306;2023-11-19T13:57:33;5.00;;;1.23;;
73454;SDS011;61690;51.824;6.306;2023-11-19T14:00:00;4.90;;;0.98;;
73454;SDS011;61690;51.824;6.306;2023-11-19T14:02:28;4.95;;;0.95;;
73454;SDS011;61690;51.824;6.306;2023-11-19T14:04:53;5.23;;;1.27;;
73454;SDS011;61690;51.824;6.306;2023-11-19T14:07:18;4.50;;;0.83;;
73454;SDS011;61690;51.824;6.306;2023-11-19T14:09:43;4.17;;;0.97;;
73454;SDS011;61690;51.824;6.306;2023-11-19T14:12:10;5.07;;;1.17;;
73454;SDS011;61690;51.824;6.306;2023-11-19T14:14:37;5.67;;;1.17;;
73454;SDS011;61690;51.824;6.306;2023-11-19T14:17:04;5.28;;;1.00;;
73454;SDS011;61690;51.824;6.306;2023-11-19T14:19:29;5.83;;;1.10;;
73454;SDS011;61690;51.824;6.306;2023-11-19T14:21:54;4.80;;;1.10;;
73454;SDS011;61690;51.824;6.306;2023-11-19T14:24:20;5.67;;;1.00;;
73454;SDS011;61690;51.824;6.306;2023-11-19T14:26:46;5.13;;;1.20;;
73454;SDS011;61690;51.824;6.306;2023-11-19T14:29:12;5.97;;;1.63;;
73454;SDS011;61690;51.824;6.306;2023-11-19T14:31:37;5.38;;;1.40;;
73454;SDS011;61690;51.824;6.306;2023-11-19T14:34:03;5.10;;;1.00;;
73454;SDS011;61690;51.824;6.306;2023-11-19T14:36:28;5.70;;;1.20;;
73454;SDS011;61690;51.824;6.306;2023-11-19T14:38:54;5.67;;;1.13;;
73454;SDS011;61690;51.824;6.306;2023-11-19T14:41:19;5.13;;;1.00;;
73454;SDS011;61690;51.824;6.306;2023-11-19T14:43:44;5.20;;;1.00;;
73454;SDS011;61690;51.824;6.306;2023-11-19T14:46:09;4.07;;;0.80;;
73454;SDS011;61690;51.824;6.306;2023-11-19T14:48:35;4.87;;;0.90;;
73454;SDS011;61690;51.824;6.306;2023-11-19T14:51:00;6.13;;;1.10;;
73454;SDS011;61690;51.824;6.306;2023-11-19T14:53:28;5.93;;;1.30;;
73454;SDS011;61690;51.824;6.306;2023-11-19T14:55:53;6.07;;;1.03;;
73454;SDS011;61690;51.824;6.306;2023-11-19T14:58:19;5.22;;;1.27;;
73454;SDS011;61690;51.824;6.306;2023-11-19T15:00:45;4.43;;;1.00;;
73454;SDS011;61690;51.824;6.306;2023-11-19T15:03:10;5.23;;;1.30;;
73454;SDS011;61690;51.824;6.306;2023-11-19T15:05:37;5.28;;;1.08;;